sensor_id;sensor_type;location;lat;lon;timestamp;temperature;humidity
78463;SHT31;67756;51.982;5.648;2023-11-22T00:01:09;8.9;67.5
78463;SHT31;67756;51.982;5.648;2023-11-22T00:03:40;8.9;67.4
78463;SHT31;67756;51.982;5.648;2023-11-22T00:06:09;8.9;67.9
78463;SHT31;67756;51.982;5.648;2023-11-22T00:08:39;9.0;67.2
78463;SHT31;67756;51.982;5.648;2023-11-22T00:11:08;9.0;66.3
78463;SHT31;67756;51.982;5.648;2023-11-22T00:13:36;9.0;65.8
78463;SHT31;67756;51.982;5.648;2023-11-22T00:16:05;9.0;66.0
78463;SHT31;67756;51.982;5.648;2023-11-22T00:18:35;8.9;66.2
78463;SHT31;67756;51.982;5.648;2023-11-22T00:21:05;8.9;66.3
78463;SHT31;67756;51.982;5.648;2023-11-22T00:23:33;8.8;66.6
78463;SHT31;67756;51.982;5.648;2023-11-22T00:26:02;8.8;66.6
78463;SHT31;67756;51.982;5.648;2023-11-22T00:28:32;8.7;66.7
78463;SHT31;67756;51.982;5.648;2023-11-22T00:31:03;8.7;66.6
78463;SHT31;67756;51.982;5.648;2023-11-22T00:33:31;8.6;67.1
78463;SHT31;67756;51.982;5.648;2023-11-22T00:36:01;8.6;66.7
78463;SHT31;67756;51.982;5.648;2023-11-22T00:38:30;8.5;67.1
78463;SHT31;67756;51.982;5.648;2023-11-22T00:41:02;8.5;67.0
78463;SHT31;67756;51.982;5.648;2023-11-22T00:43:30;8.5;66.9
78463;SHT31;67756;51.982;5.648;2023-11-22T00:45:59;8.4;67.0
78463;SHT31;67756;51.982;5.648;2023-11-22T00:48:28;8.4;66.9
78463;SHT31;67756;51.982;5.648;2023-11-22T00:50:56;8.4;66.9
78463;SHT31;67756;51.982;5.648;2023-11-22T00:53:25;8.3;66.8
78463;SHT31;67756;51.982;5.648;2023-11-22T00:55:54;8.3;66.5
78463;SHT31;67756;51.982;5.648;2023-11-22T00:58:22;8.3;66.6
78463;SHT31;67756;51.982;5.648;2023-11-22T01:00:51;8.3;66.2
78463;SHT31;67756;51.982;5.648;2023-11-22T01:03:20;8.2;65.8
78463;SHT31;67756;51.982;5.648;2023-11-22T01:05:48;8.2;66.1
78463;SHT31;67756;51.982;5.648;2023-11-22T01:08:17;8.2;66.2
78463;SHT31;67756;51.982;5.648;2023-11-22T01:10:45;8.2;65.7
78463;SHT31;67756;51.982;5.648;2023-11-22T01:13:14;8.1;65.8
78463;SHT31;67756;51.982;5.648;2023-11-22T01:15:42;8.1;66.0
78463;SHT31;67756;51.982;5.648;2023-11-22T01:18:11;8.1;65.6
78463;SHT31;67756;51.982;5.648;2023-11-22T01:20:40;8.0;65.8
78463;SHT31;67756;51.982;5.648;2023-11-22T01:23:08;8.0;65.2
78463;SHT31;67756;51.982;5.648;2023-11-22T01:25:36;7.9;65.7
78463;SHT31;67756;51.982;5.648;2023-11-22T01:28:07;7.9;65.5
78463;SHT31;67756;51.982;5.648;2023-11-22T01:30:37;7.8;66.3
78463;SHT31;67756;51.982;5.648;2023-11-22T01:33:06;7.8;66.4
78463;SHT31;67756;51.982;5.648;2023-11-22T01:35:34;7.8;66.2
78463;SHT31;67756;51.982;5.648;2023-11-22T01:38:02;7.7;67.0
78463;SHT31;67756;51.982;5.648;2023-11-22T01:40:31;7.7;67.1
78463;SHT31;67756;51.982;5.648;2023-11-22T01:43:00;7.7;67.6
78463;SHT31;67756;51.982;5.648;2023-11-22T01:45:30;7.6;67.8
78463;SHT31;67756;51.982;5.648;2023-11-22T01:48:00;7.6;67.3
78463;SHT31;67756;51.982;5.648;2023-11-22T01:50:29;7.6;67.6
78463;SHT31;67756;51.982;5.648;2023-11-22T01:52:58;7.6;67.1
78463;SHT31;67756;51.982;5.648;2023-11-22T01:55:27;7.5;67.7
78463;SHT31;67756;51.982;5.648;2023-11-22T01:57:56;7.5;67.9
78463;SHT31;67756;51.982;5.648;2023-11-22T02:00:29;7.5;68.2
78463;SHT31;67756;51.982;5.648;2023-11-22T02:03:00;7.5;67.9
78463;SHT31;67756;51.982;5.648;2023-11-22T02:05:28;7.6;67.3
78463;SHT31;67756;51.982;5.648;2023-11-22T02:07:57;7.6;66.4
78463;SHT31;67756;51.982;5.648;2023-11-22T02:10:26;7.6;66.1
78463;SHT31;67756;51.982;5.648;2023-11-22T02:12:55;7.6;66.0
78463;SHT31;67756;51.982;5.648;2023-11-22T02:15:27;7.7;65.5
78463;SHT31;67756;51.982;5.648;2023-11-22T02:17:56;7.7;65.6
78463;SHT31;67756;51.982;5.648;2023-11-22T02:20:25;7.8;65.1
78463;SHT31;67756;51.982;5.648;2023-11-22T02:22:54;7.8;65.3
78463;SHT31;67756;51.982;5.648;2023-11-22T02:25:23;7.7;64.8
78463;SHT31;67756;51.982;5.648;2023-11-22T02:27:52;7.7;64.8
78463;SHT31;67756;51.982;5.648;2023-11-22T02:30:20;7.7;64.8
78463;SHT31;67756;51.982;5.648;2023-11-22T02:32:50;7.6;64.9
78463;SHT31;67756;51.982;5.648;2023-11-22T02:35:18;7.6;65.1
78463;SHT31;67756;51.982;5.648;2023-11-22T02:37:47;7.6;65.1
78463;SHT31;67756;51.982;5.648;2023-11-22T02:40:18;7.5;65.4
78463;SHT31;67756;51.982;5.648;2023-11-22T02:42:48;7.5;65.0
78463;SHT31;67756;51.982;5.648;2023-11-22T02:45:18;7.4;65.3
78463;SHT31;67756;51.982;5.648;2023-11-22T02:47:49;7.4;64.7
78463;SHT31;67756;51.982;5.648;2023-11-22T02:50:20;7.3;65.0
78463;SHT31;67756;51.982;5.648;2023-11-22T02:52:49;7.3;65.2
78463;SHT31;67756;51.982;5.648;2023-11-22T02:55:19;7.2;64.9
78463;SHT31;67756;51.982;5.648;2023-11-22T02:57:48;7.2;65.3
78463;SHT31;67756;51.982;5.648;2023-11-22T03:00:18;7.2;65.4
78463;SHT31;67756;51.982;5.648;2023-11-22T03:02:48;7.1;65.4
78463;SHT31;67756;51.982;5.648;2023-11-22T03:05:22;7.1;65.5
78463;SHT31;67756;51.982;5.648;2023-11-22T03:07:50;7.0;65.5
78463;SHT31;67756;51.982;5.648;2023-11-22T03:10:19;7.0;65.7
78463;SHT31;67756;51.982;5.648;2023-11-22T03:12:47;7.0;65.2
78463;SHT31;67756;51.982;5.648;2023-11-22T03:15:16;6.9;66.4
78463;SHT31;67756;51.982;5.648;2023-11-22T03:17:44;6.9;66.7
78463;SHT31;67756;51.982;5.648;2023-11-22T03:20:14;6.9;66.6
78463;SHT31;67756;51.982;5.648;2023-11-22T03:22:43;6.9;66.2
78463;SHT31;67756;51.982;5.648;2023-11-22T03:25:12;6.8;65.1
78463;SHT31;67756;51.982;5.648;2023-11-22T03:27:40;6.8;65.5
78463;SHT31;67756;51.982;5.648;2023-11-22T03:30:12;6.8;65.0
78463;SHT31;67756;51.982;5.648;2023-11-22T03:32:41;6.7;65.3
78463;SHT31;67756;51.982;5.648;2023-11-22T03:35:10;6.7;65.8
78463;SHT31;67756;51.982;5.648;2023-11-22T03:37:39;6.7;66.0
78463;SHT31;67756;51.982;5.648;2023-11-22T03:40:08;6.6;65.9
78463;SHT31;67756;51.982;5.648;2023-11-22T03:42:38;6.6;66.1
78463;SHT31;67756;51.982;5.648;2023-11-22T03:45:08;6.6;65.8
78463;SHT31;67756;51.982;5.648;2023-11-22T03:47:38;6.6;66.0
78463;SHT31;67756;51.982;5.648;2023-11-22T03:50:07;6.6;66.2
78463;SHT31;67756;51.982;5.648;2023-11-22T03:52:36;6.6;66.2
78463;SHT31;67756;51.982;5.648;2023-11-22T03:55:05;6.5;66.3
78463;SHT31;67756;51.982;5.648;2023-11-22T03:57:34;6.5;66.0
78463;SHT31;67756;51.982;5.648;2023-11-22T04:00:03;6.5;65.9
78463;SHT31;67756;51.982;5.648;2023-11-22T04:02:33;6.5;65.9
78463;SHT31;67756;51.982;5.648;2023-11-22T04:05:01;6.5;66.0
78463;SHT31;67756;51.982;5.648;2023-11-22T04:07:29;6.4;65.7
78463;SHT31;67756;51.982;5.648;2023-11-22T04:09:58;6.5;65.6
78463;SHT31;67756;51.982;5.648;2023-11-22T04:12:29;6.5;66.1
78463;SHT31;67756;51.982;5.648;2023-11-22T04:14:59;6.6;65.3
78463;SHT31;67756;51.982;5.648;2023-11-22T04:17:27;6.6;65.3
78463;SHT31;67756;51.982;5.648;2023-11-22T04:19:56;6.7;64.3
78463;SHT31;67756;51.982;5.648;2023-11-22T04:22:24;6.7;64.2
78463;SHT31;67756;51.982;5.648;2023-11-22T04:24:53;6.8;64.0
78463;SHT31;67756;51.982;5.648;2023-11-22T04:27:22;6.8;64.1
78463;SHT31;67756;51.982;5.648;2023-11-22T04:29:50;6.7;63.8
78463;SHT31;67756;51.982;5.648;2023-11-22T04:32:18;6.7;63.6
78463;SHT31;67756;51.982;5.648;2023-11-22T04:34:48;6.7;63.8
78463;SHT31;67756;51.982;5.648;2023-11-22T04:37:16;6.6;63.9
78463;SHT31;67756;51.982;5.648;2023-11-22T04:39:45;6.6;64.1
78463;SHT31;67756;51.982;5.648;2023-11-22T04:42:18;6.5;63.2
78463;SHT31;67756;51.982;5.648;2023-11-22T04:44:47;6.5;63.2
78463;SHT31;67756;51.982;5.648;2023-11-22T04:47:16;6.4;63.4
78463;SHT31;67756;51.982;5.648;2023-11-22T04:49:46;6.4;64.0
78463;SHT31;67756;51.982;5.648;2023-11-22T04:52:15;6.3;64.1
78463;SHT31;67756;51.982;5.648;2023-11-22T04:54:45;6.3;63.9
78463;SHT31;67756;51.982;5.648;2023-11-22T04:57:13;6.2;63.9
78463;SHT31;67756;51.982;5.648;2023-11-22T04:59:42;6.2;64.1
78463;SHT31;67756;51.982;5.648;2023-11-22T05:02:10;6.2;64.3
78463;SHT31;67756;51.982;5.648;2023-11-22T05:04:39;6.1;64.2
78463;SHT31;67756;51.982;5.648;2023-11-22T05:07:09;6.1;64.9
78463;SHT31;67756;51.982;5.648;2023-11-22T05:09:37;6.1;65.3
78463;SHT31;67756;51.982;5.648;2023-11-22T05:12:06;6.0;65.4
78463;SHT31;67756;51.982;5.648;2023-11-22T05:14:37;6.0;65.3
78463;SHT31;67756;51.982;5.648;2023-11-22T05:17:06;6.0;65.3
78463;SHT31;67756;51.982;5.648;2023-11-22T05:19:34;5.9;65.2
78463;SHT31;67756;51.982;5.648;2023-11-22T05:22:05;5.9;65.5
78463;SHT31;67756;51.982;5.648;2023-11-22T05:24:35;5.9;66.0
78463;SHT31;67756;51.982;5.648;2023-11-22T05:27:09;5.9;65.6
78463;SHT31;67756;51.982;5.648;2023-11-22T05:29:38;5.9;65.9
78463;SHT31;67756;51.982;5.648;2023-11-22T05:32:07;5.9;66.6
78463;SHT31;67756;51.982;5.648;2023-11-22T05:34:35;5.9;66.4
78463;SHT31;67756;51.982;5.648;2023-11-22T05:37:07;5.9;66.8
78463;SHT31;67756;51.982;5.648;2023-11-22T05:39:35;5.9;67.0
78463;SHT31;67756;51.982;5.648;2023-11-22T05:42:04;5.9;67.0
78463;SHT31;67756;51.982;5.648;2023-11-22T05:44:33;5.9;66.5
78463;SHT31;67756;51.982;5.648;2023-11-22T05:47:01;6.0;66.7
78463;SHT31;67756;51.982;5.648;2023-11-22T05:49:30;6.0;67.0
78463;SHT31;67756;51.982;5.648;2023-11-22T05:52:00;6.0;67.6
78463;SHT31;67756;51.982;5.648;2023-11-22T05:54:31;6.0;67.3
78463;SHT31;67756;51.982;5.648;2023-11-22T05:56:59;6.0;67.3
78463;SHT31;67756;51.982;5.648;2023-11-22T05:59:28;6.0;67.8
78463;SHT31;67756;51.982;5.648;2023-11-22T06:01:56;6.0;67.4
78463;SHT31;67756;51.982;5.648;2023-11-22T06:04:25;6.1;67.5
78463;SHT31;67756;51.982;5.648;2023-11-22T06:06:53;6.1;67.5
78463;SHT31;67756;51.982;5.648;2023-11-22T06:09:22;6.1;66.9
78463;SHT31;67756;51.982;5.648;2023-11-22T06:11:51;6.2;67.7
78463;SHT31;67756;51.982;5.648;2023-11-22T06:14:21;6.3;68.2
78463;SHT31;67756;51.982;5.648;2023-11-22T06:16:50;6.3;67.5
78463;SHT31;67756;51.982;5.648;2023-11-22T06:19:19;6.4;67.2
78463;SHT31;67756;51.982;5.648;2023-11-22T06:21:47;6.4;67.7
78463;SHT31;67756;51.982;5.648;2023-11-22T06:24:16;6.6;67.2
78463;SHT31;67756;51.982;5.648;2023-11-22T06:26:44;6.6;66.1
78463;SHT31;67756;51.982;5.648;2023-11-22T06:29:14;6.6;65.8
78463;SHT31;67756;51.982;5.648;2023-11-22T06:31:42;6.7;66.5
78463;SHT31;67756;51.982;5.648;2023-11-22T06:34:11;6.6;65.6
78463;SHT31;67756;51.982;5.648;2023-11-22T06:36:40;6.6;65.9
78463;SHT31;67756;51.982;5.648;2023-11-22T06:39:09;6.6;66.5
78463;SHT31;67756;51.982;5.648;2023-11-22T06:41:39;6.6;65.9
78463;SHT31;67756;51.982;5.648;2023-11-22T06:44:08;6.6;65.9
78463;SHT31;67756;51.982;5.648;2023-11-22T06:46:37;6.6;65.6
78463;SHT31;67756;51.982;5.648;2023-11-22T06:49:06;6.6;66.0
78463;SHT31;67756;51.982;5.648;2023-11-22T06:51:35;6.5;66.0
78463;SHT31;67756;51.982;5.648;2023-11-22T06:54:03;6.5;66.1
78463;SHT31;67756;51.982;5.648;2023-11-22T06:56:33;6.5;66.5
78463;SHT31;67756;51.982;5.648;2023-11-22T06:59:01;6.5;67.9
78463;SHT31;67756;51.982;5.648;2023-11-22T07:01:32;6.5;68.2
78463;SHT31;67756;51.982;5.648;2023-11-22T07:04:00;6.5;68.8
78463;SHT31;67756;51.982;5.648;2023-11-22T07:06:31;6.5;69.2
78463;SHT31;67756;51.982;5.648;2023-11-22T07:09:00;6.5;69.6
78463;SHT31;67756;51.982;5.648;2023-11-22T07:11:28;6.5;69.8
78463;SHT31;67756;51.982;5.648;2023-11-22T07:13:57;6.5;70.1
78463;SHT31;67756;51.982;5.648;2023-11-22T07:16:26;6.5;70.2
78463;SHT31;67756;51.982;5.648;2023-11-22T07:18:55;6.5;70.5
78463;SHT31;67756;51.982;5.648;2023-11-22T07:21:23;6.5;70.9
78463;SHT31;67756;51.982;5.648;2023-11-22T07:23:51;6.5;71.0
78463;SHT31;67756;51.982;5.648;2023-11-22T07:26:21;6.5;70.8
78463;SHT31;67756;51.982;5.648;2023-11-22T07:28:50;6.6;71.0
78463;SHT31;67756;51.982;5.648;2023-11-22T07:31:18;6.6;71.2
78463;SHT31;67756;51.982;5.648;2023-11-22T07:33:47;6.6;70.9
78463;SHT31;67756;51.982;5.648;2023-11-22T07:36:16;6.7;70.9
78463;SHT31;67756;51.982;5.648;2023-11-22T07:38:46;6.7;70.9
78463;SHT31;67756;51.982;5.648;2023-11-22T07:41:19;6.7;71.0
78463;SHT31;67756;51.982;5.648;2023-11-22T07:43:48;6.8;71.1
78463;SHT31;67756;51.982;5.648;2023-11-22T07:46:16;6.8;71.3
78463;SHT31;67756;51.982;5.648;2023-11-22T07:48:45;6.9;71.1
78463;SHT31;67756;51.982;5.648;2023-11-22T07:51:15;6.9;70.9
78463;SHT31;67756;51.982;5.648;2023-11-22T07:53:44;7.0;70.8
78463;SHT31;67756;51.982;5.648;2023-11-22T07:56:13;7.0;70.5
78463;SHT31;67756;51.982;5.648;2023-11-22T07:58:41;7.1;70.3
78463;SHT31;67756;51.982;5.648;2023-11-22T08:01:10;7.1;70.3
78463;SHT31;67756;51.982;5.648;2023-11-22T08:03:40;7.1;70.8
78463;SHT31;67756;51.982;5.648;2023-11-22T08:06:16;7.1;71.0
78463;SHT31;67756;51.982;5.648;2023-11-22T08:08:44;7.2;70.8
78463;SHT31;67756;51.982;5.648;2023-11-22T08:11:14;7.2;70.5
78463;SHT31;67756;51.982;5.648;2023-11-22T08:13:44;7.2;70.7
78463;SHT31;67756;51.982;5.648;2023-11-22T08:16:16;7.3;71.3
78463;SHT31;67756;51.982;5.648;2023-11-22T08:18:46;7.4;70.6
78463;SHT31;67756;51.982;5.648;2023-11-22T08:21:14;7.4;70.8
78463;SHT31;67756;51.982;5.648;2023-11-22T08:23:46;7.4;69.7
78463;SHT31;67756;51.982;5.648;2023-11-22T08:26:15;7.5;70.5
78463;SHT31;67756;51.982;5.648;2023-11-22T08:28:47;7.6;70.8
78463;SHT31;67756;51.982;5.648;2023-11-22T08:31:15;7.6;70.5
78463;SHT31;67756;51.982;5.648;2023-11-22T08:33:44;7.7;69.8
78463;SHT31;67756;51.982;5.648;2023-11-22T08:36:13;7.7;69.5
78463;SHT31;67756;51.982;5.648;2023-11-22T08:38:41;7.7;69.3
78463;SHT31;67756;51.982;5.648;2023-11-22T08:41:11;7.7;69.5
78463;SHT31;67756;51.982;5.648;2023-11-22T08:43:40;7.8;69.2
78463;SHT31;67756;51.982;5.648;2023-11-22T08:46:08;7.8;69.3
78463;SHT31;67756;51.982;5.648;2023-11-22T08:48:37;7.8;69.1
78463;SHT31;67756;51.982;5.648;2023-11-22T08:51:08;7.8;69.2
78463;SHT31;67756;51.982;5.648;2023-11-22T08:53:38;7.7;69.2
78463;SHT31;67756;51.982;5.648;2023-11-22T08:56:06;7.7;69.7
78463;SHT31;67756;51.982;5.648;2023-11-22T08:58:35;7.7;69.6
78463;SHT31;67756;51.982;5.648;2023-11-22T09:01:04;7.7;70.0
78463;SHT31;67756;51.982;5.648;2023-11-22T09:03:33;7.7;69.9
78463;SHT31;67756;51.982;5.648;2023-11-22T09:06:03;7.7;70.2
78463;SHT31;67756;51.982;5.648;2023-11-22T09:08:33;7.7;70.1
78463;SHT31;67756;51.982;5.648;2023-11-22T09:11:02;7.7;70.5
78463;SHT31;67756;51.982;5.648;2023-11-22T09:13:32;7.6;70.5
78463;SHT31;67756;51.982;5.648;2023-11-22T09:16:01;7.6;70.4
78463;SHT31;67756;51.982;5.648;2023-11-22T09:18:31;7.6;70.2
78463;SHT31;67756;51.982;5.648;2023-11-22T09:21:00;7.6;70.6
78463;SHT31;67756;51.982;5.648;2023-11-22T09:23:29;7.6;70.9
78463;SHT31;67756;51.982;5.648;2023-11-22T09:25:57;7.6;70.8
78463;SHT31;67756;51.982;5.648;2023-11-22T09:28:26;7.6;70.9
78463;SHT31;67756;51.982;5.648;2023-11-22T09:30:57;7.6;71.0
78463;SHT31;67756;51.982;5.648;2023-11-22T09:33:32;7.7;70.8
78463;SHT31;67756;51.982;5.648;2023-11-22T09:36:00;7.7;70.7
78463;SHT31;67756;51.982;5.648;2023-11-22T09:38:32;7.7;70.7
78463;SHT31;67756;51.982;5.648;2023-11-22T09:41:01;7.7;71.3
78463;SHT31;67756;51.982;5.648;2023-11-22T09:43:29;7.7;70.8
78463;SHT31;67756;51.982;5.648;2023-11-22T09:45:58;7.7;70.8
78463;SHT31;67756;51.982;5.648;2023-11-22T09:48:26;7.7;71.2
78463;SHT31;67756;51.982;5.648;2023-11-22T09:50:59;7.7;70.9
78463;SHT31;67756;51.982;5.648;2023-11-22T09:53:34;7.7;71.0
78463;SHT31;67756;51.982;5.648;2023-11-22T09:56:03;7.7;70.9
78463;SHT31;67756;51.982;5.648;2023-11-22T09:58:34;7.8;71.3
78463;SHT31;67756;51.982;5.648;2023-11-22T10:01:03;7.8;71.3
78463;SHT31;67756;51.982;5.648;2023-11-22T10:03:31;7.8;71.9
78463;SHT31;67756;51.982;5.648;2023-11-22T10:06:00;7.9;71.0
78463;SHT31;67756;51.982;5.648;2023-11-22T10:08:30;7.9;70.4
78463;SHT31;67756;51.982;5.648;2023-11-22T10:10:59;8.0;69.7
78463;SHT31;67756;51.982;5.648;2023-11-22T10:13:28;8.0;69.5
78463;SHT31;67756;51.982;5.648;2023-11-22T10:16:10;8.0;69.4
78463;SHT31;67756;51.982;5.648;2023-11-22T10:18:41;8.0;69.8
78463;SHT31;67756;51.982;5.648;2023-11-22T10:21:31;8.0;69.9
78463;SHT31;67756;51.982;5.648;2023-11-22T10:24:01;8.0;69.6
78463;SHT31;67756;51.982;5.648;2023-11-22T10:26:30;8.1;69.6
78463;SHT31;67756;51.982;5.648;2023-11-22T10:28:59;8.2;69.5
78463;SHT31;67756;51.982;5.648;2023-11-22T10:31:28;8.2;68.1
78463;SHT31;67756;51.982;5.648;2023-11-22T10:33:57;8.3;67.9
78463;SHT31;67756;51.982;5.648;2023-11-22T10:36:25;8.3;68.2
78463;SHT31;67756;51.982;5.648;2023-11-22T10:38:54;8.4;68.6
78463;SHT31;67756;51.982;5.648;2023-11-22T10:41:24;8.5;67.5
78463;SHT31;67756;51.982;5.648;2023-11-22T10:43:53;8.5;67.7
78463;SHT31;67756;51.982;5.648;2023-11-22T10:46:27;8.6;67.9
78463;SHT31;67756;51.982;5.648;2023-11-22T10:48:56;8.6;68.7
78463;SHT31;67756;51.982;5.648;2023-11-22T10:51:29;8.6;67.3
78463;SHT31;67756;51.982;5.648;2023-11-22T10:54:02;8.7;67.7
78463;SHT31;67756;51.982;5.648;2023-11-22T10:56:39;8.7;68.5
78463;SHT31;67756;51.982;5.648;2023-11-22T10:59:11;8.8;68.7
78463;SHT31;67756;51.982;5.648;2023-11-22T11:01:44;8.8;67.9
78463;SHT31;67756;51.982;5.648;2023-11-22T11:04:24;8.9;66.9
78463;SHT31;67756;51.982;5.648;2023-11-22T11:06:55;8.9;66.3
78463;SHT31;67756;51.982;5.648;2023-11-22T11:09:25;9.0;65.0
78463;SHT31;67756;51.982;5.648;2023-11-22T11:11:59;9.0;64.2
78463;SHT31;67756;51.982;5.648;2023-11-22T11:14:29;9.0;64.2
78463;SHT31;67756;51.982;5.648;2023-11-22T11:16:58;9.0;63.5
78463;SHT31;67756;51.982;5.648;2023-11-22T11:19:27;9.0;63.6
78463;SHT31;67756;51.982;5.648;2023-11-22T11:21:57;9.1;62.5
78463;SHT31;67756;51.982;5.648;2023-11-22T11:24:25;9.1;62.2
78463;SHT31;67756;51.982;5.648;2023-11-22T11:26:54;9.1;61.5
78463;SHT31;67756;51.982;5.648;2023-11-22T11:29:32;9.2;62.2
78463;SHT31;67756;51.982;5.648;2023-11-22T11:32:04;9.3;61.6
78463;SHT31;67756;51.982;5.648;2023-11-22T11:34:47;9.3;61.3
78463;SHT31;67756;51.982;5.648;2023-11-22T11:37:18;9.4;61.5
78463;SHT31;67756;51.982;5.648;2023-11-22T11:39:46;9.4;62.4
78463;SHT31;67756;51.982;5.648;2023-11-22T11:42:15;9.4;63.1
78463;SHT31;67756;51.982;5.648;2023-11-22T11:45:06;9.4;62.2
78463;SHT31;67756;51.982;5.648;2023-11-22T11:47:36;9.5;61.0
78463;SHT31;67756;51.982;5.648;2023-11-22T11:50:05;9.5;60.7
78463;SHT31;67756;51.982;5.648;2023-11-22T11:52:39;9.4;60.3
78463;SHT31;67756;51.982;5.648;2023-11-22T11:55:08;9.3;60.4
78463;SHT31;67756;51.982;5.648;2023-11-22T11:57:37;9.2;61.1
78463;SHT31;67756;51.982;5.648;2023-11-22T12:00:09;9.1;61.9
78463;SHT31;67756;51.982;5.648;2023-11-22T12:02:41;9.0;62.8
78463;SHT31;67756;51.982;5.648;2023-11-22T12:05:09;9.0;63.2
78463;SHT31;67756;51.982;5.648;2023-11-22T12:07:39;8.9;64.2
78463;SHT31;67756;51.982;5.648;2023-11-22T12:10:09;8.9;63.9
78463;SHT31;67756;51.982;5.648;2023-11-22T12:12:42;8.9;64.4
78463;SHT31;67756;51.982;5.648;2023-11-22T12:15:13;8.9;65.1
78463;SHT31;67756;51.982;5.648;2023-11-22T12:17:42;9.0;64.7
78463;SHT31;67756;51.982;5.648;2023-11-22T12:20:14;9.0;65.2
78463;SHT31;67756;51.982;5.648;2023-11-22T12:22:44;9.1;63.2
78463;SHT31;67756;51.982;5.648;2023-11-22T12:25:14;9.2;63.0
78463;SHT31;67756;51.982;5.648;2023-11-22T12:27:44;9.3;62.5
78463;SHT31;67756;51.982;5.648;2023-11-22T12:30:30;9.4;62.8
78463;SHT31;67756;51.982;5.648;2023-11-22T12:33:02;9.4;62.9
78463;SHT31;67756;51.982;5.648;2023-11-22T12:35:32;9.5;63.0
78463;SHT31;67756;51.982;5.648;2023-11-22T12:38:05;9.5;63.1
78463;SHT31;67756;51.982;5.648;2023-11-22T12:40:34;9.5;62.3
78463;SHT31;67756;51.982;5.648;2023-11-22T12:43:03;9.6;62.0
78463;SHT31;67756;51.982;5.648;2023-11-22T12:45:34;9.6;62.0
78463;SHT31;67756;51.982;5.648;2023-11-22T12:48:21;9.6;62.6
78463;SHT31;67756;51.982;5.648;2023-11-22T12:50:52;9.7;63.4
78463;SHT31;67756;51.982;5.648;2023-11-22T12:53:21;9.8;63.1
78463;SHT31;67756;51.982;5.648;2023-11-22T12:55:52;9.8;63.0
78463;SHT31;67756;51.982;5.648;2023-11-22T12:58:22;9.9;62.9
78463;SHT31;67756;51.982;5.648;2023-11-22T13:00:52;9.9;60.9
78463;SHT31;67756;51.982;5.648;2023-11-22T13:03:24;10.0;61.4
78463;SHT31;67756;51.982;5.648;2023-11-22T13:05:54;10.0;59.7
78463;SHT31;67756;51.982;5.648;2023-11-22T13:08:23;10.0;59.8
78463;SHT31;67756;51.982;5.648;2023-11-22T13:10:55;10.0;59.4
78463;SHT31;67756;51.982;5.648;2023-11-22T13:13:25;10.0;59.3
78463;SHT31;67756;51.982;5.648;2023-11-22T13:15:54;9.9;59.8
78463;SHT31;67756;51.982;5.648;2023-11-22T13:18:23;9.8;60.3
78463;SHT31;67756;51.982;5.648;2023-11-22T13:20:52;9.7;60.9
78463;SHT31;67756;51.982;5.648;2023-11-22T13:23:21;9.7;61.5
78463;SHT31;67756;51.982;5.648;2023-11-22T13:25:50;9.6;61.3
78463;SHT31;67756;51.982;5.648;2023-11-22T13:28:18;9.6;61.3
78463;SHT31;67756;51.982;5.648;2023-11-22T13:30:47;9.6;61.8
78463;SHT31;67756;51.982;5.648;2023-11-22T13:33:17;9.5;62.0
78463;SHT31;67756;51.982;5.648;2023-11-22T13:35:47;9.4;62.0
78463;SHT31;67756;51.982;5.648;2023-11-22T13:38:15;9.3;62.3
78463;SHT31;67756;51.982;5.648;2023-11-22T13:40:45;9.3;62.5
78463;SHT31;67756;51.982;5.648;2023-11-22T13:43:14;9.2;62.8
78463;SHT31;67756;51.982;5.648;2023-11-22T13:45:43;9.2;63.7
78463;SHT31;67756;51.982;5.648;2023-11-22T13:48:12;9.1;64.2
78463;SHT31;67756;51.982;5.648;2023-11-22T13:50:40;9.1;64.4
78463;SHT31;67756;51.982;5.648;2023-11-22T13:53:11;9.1;65.1
78463;SHT31;67756;51.982;5.648;2023-11-22T13:55:41;9.1;64.9
78463;SHT31;67756;51.982;5.648;2023-11-22T13:58:10;9.0;65.3
78463;SHT31;67756;51.982;5.648;2023-11-22T14:00:39;9.0;65.4
78463;SHT31;67756;51.982;5.648;2023-11-22T14:03:09;9.0;65.7
78463;SHT31;67756;51.982;5.648;2023-11-22T14:05:38;9.0;65.7
78463;SHT31;67756;51.982;5.648;2023-11-22T14:08:07;8.9;66.0
78463;SHT31;67756;51.982;5.648;2023-11-22T14:10:36;8.9;66.1
78463;SHT31;67756;51.982;5.648;2023-11-22T14:13:04;8.8;66.7
78463;SHT31;67756;51.982;5.648;2023-11-22T14:15:34;8.8;66.8
78463;SHT31;67756;51.982;5.648;2023-11-22T14:18:03;8.7;67.1
78463;SHT31;67756;51.982;5.648;2023-11-22T14:20:32;8.7;67.2
78463;SHT31;67756;51.982;5.648;2023-11-22T14:23:03;8.7;67.6
78463;SHT31;67756;51.982;5.648;2023-11-22T14:25:35;8.7;67.7
78463;SHT31;67756;51.982;5.648;2023-11-22T14:28:04;8.7;67.7
78463;SHT31;67756;51.982;5.648;2023-11-22T14:30:33;8.6;68.1
78463;SHT31;67756;51.982;5.648;2023-11-22T14:33:03;8.6;68.0
78463;SHT31;67756;51.982;5.648;2023-11-22T14:35:33;8.6;68.2
78463;SHT31;67756;51.982;5.648;2023-11-22T14:38:03;8.6;68.5
78463;SHT31;67756;51.982;5.648;2023-11-22T14:40:32;8.6;69.1
78463;SHT31;67756;51.982;5.648;2023-11-22T14:43:04;8.5;69.5
78463;SHT31;67756;51.982;5.648;2023-11-22T14:45:33;8.5;69.3
78463;SHT31;67756;51.982;5.648;2023-11-22T14:48:04;8.5;69.1
78463;SHT31;67756;51.982;5.648;2023-11-22T14:50:34;8.4;69.8
78463;SHT31;67756;51.982;5.648;2023-11-22T14:53:02;8.4;70.2
78463;SHT31;67756;51.982;5.648;2023-11-22T14:55:32;8.4;70.2
78463;SHT31;67756;51.982;5.648;2023-11-22T14:58:05;8.3;70.1
78463;SHT31;67756;51.982;5.648;2023-11-22T15:00:34;8.3;70.0
78463;SHT31;67756;51.982;5.648;2023-11-22T15:03:04;8.2;70.3
78463;SHT31;67756;51.982;5.648;2023-11-22T15:05:34;8.2;70.9
78463;SHT31;67756;51.982;5.648;2023-11-22T15:08:02;8.2;71.0
78463;SHT31;67756;51.982;5.648;2023-11-22T15:10:31;8.2;71.2
78463;SHT31;67756;51.982;5.648;2023-11-22T15:13:01;8.3;70.2
78463;SHT31;67756;51.982;5.648;2023-11-22T15:15:30;8.3;69.7
78463;SHT31;67756;51.982;5.648;2023-11-22T15:17:58;8.2;69.9
78463;SHT31;67756;51.982;5.648;2023-11-22T15:20:27;8.2;69.9
78463;SHT31;67756;51.982;5.648;2023-11-22T15:22:55;8.2;70.1
78463;SHT31;67756;51.982;5.648;2023-11-22T15:25:25;8.2;70.4
78463;SHT31;67756;51.982;5.648;2023-11-22T15:27:54;8.1;70.1
78463;SHT31;67756;51.982;5.648;2023-11-22T15:30:25;8.1;70.9
78463;SHT31;67756;51.982;5.648;2023-11-22T15:32:54;8.0;71.4
78463;SHT31;67756;51.982;5.648;2023-11-22T15:35:22;8.0;71.9
78463;SHT31;67756;51.982;5.648;2023-11-22T15:37:52;8.0;71.9
78463;SHT31;67756;51.982;5.648;2023-11-22T15:40:21;8.0;72.4
78463;SHT31;67756;51.982;5.648;2023-11-22T15:42:49;8.0;72.4
78463;SHT31;67756;51.982;5.648;2023-11-22T15:45:18;8.1;72.1
78463;SHT31;67756;51.982;5.648;2023-11-22T15:47:48;8.1;71.6
78463;SHT31;67756;51.982;5.648;2023-11-22T15:50:16;8.1;71.7
78463;SHT31;67756;51.982;5.648;2023-11-22T15:52:45;8.1;71.6
78463;SHT31;67756;51.982;5.648;2023-11-22T15:55:13;8.1;71.4
78463;SHT31;67756;51.982;5.648;2023-11-22T15:57:43;8.0;71.5
78463;SHT31;67756;51.982;5.648;2023-11-22T16:00:13;8.0;71.8
78463;SHT31;67756;51.982;5.648;2023-11-22T16:02:42;7.9;71.7
78463;SHT31;67756;51.982;5.648;2023-11-22T16:05:10;7.9;72.0
78463;SHT31;67756;51.982;5.648;2023-11-22T16:07:39;7.9;71.9
78463;SHT31;67756;51.982;5.648;2023-11-22T16:10:08;7.9;72.1
78463;SHT31;67756;51.982;5.648;2023-11-22T16:12:38;7.8;72.3
78463;SHT31;67756;51.982;5.648;2023-11-22T16:15:08;7.8;71.7
78463;SHT31;67756;51.982;5.648;2023-11-22T16:17:38;7.8;72.4
78463;SHT31;67756;51.982;5.648;2023-11-22T16:20:10;7.7;72.3
78463;SHT31;67756;51.982;5.648;2023-11-22T16:22:41;7.7;72.1
78463;SHT31;67756;51.982;5.648;2023-11-22T16:25:12;7.7;72.5
78463;SHT31;67756;51.982;5.648;2023-11-22T16:27:43;7.7;72.7
78463;SHT31;67756;51.982;5.648;2023-11-22T16:30:12;7.7;72.4
78463;SHT31;67756;51.982;5.648;2023-11-22T16:32:41;7.7;72.6